Time;durP1;ratioP1;P1;durP2;ratioP2;P2;SDS_P1;SDS_P2;PMS_P1;PMS_P2;Temp;Humidity;BMP_temperature;BMP_pressure;BME280_temperature;BME280_humidity;BME280_pressure;Samples;Min_cycle;Max_cycle;Signal;HPM_P1;HPM_P2
2023/10/19 00:00:58;;;;;;;0.43;0.43;;;7.70;99.90;;;;;;5103591;27;20063;-74
2023/10/19 00:03:24;;;;;;;1.05;1.05;;;7.60;99.90;;;;;;5108475;28;20524;-74
2023/10/19 00:05:50;;;;;;;0.52;0.52;;;7.60;99.90;;;;;;5110934;28;20047;-74
2023/10/19 00:10:47;;;;;;;0.70;0.70;;;7.60;99.90;;;;;;5086926;28;20077;-74
2023/10/19 00:13:14;;;;;;;0.63;0.63;;;7.60;99.90;;;;;;5110166;28;20044;-74
2023/10/19 00:15:53;;;;;;;0.60;0.60;;;7.60;99.90;;;;;;5092157;28;20051;-75
2023/10/19 00:18:23;;;;;;;0.45;0.45;;;7.60;99.90;;;;;;5110373;28;20036;-74
2023/10/19 00:23:34;;;;;;;0.40;0.40;;;7.50;99.90;;;;;;5100395;28;20112;-77
2023/10/19 00:26:07;;;;;;;1.17;0.90;;;7.60;99.90;;;;;;5110175;28;20104;-77
2023/10/19 00:28:35;;;;;;;0.98;0.98;;;7.60;99.90;;;;;;5110385;28;20462;-78
2023/10/19 00:31:04;;;;;;;0.80;0.80;;;7.50;99.90;;;;;;5089823;27;20091;-79
2023/10/19 00:33:32;;;;;;;0.50;0.50;;;7.60;99.90;;;;;;5110424;28;20048;-78
2023/10/19 00:36:06;;;;;;;0.63;0.63;;;7.60;99.90;;;;;;5109993;28;20086;-79
2023/10/19 00:43:36;;;;;;;0.57;0.57;;;7.50;99.90;;;;;;5106774;28;20124;-78
2023/10/19 00:48:59;;;;;;;0.77;0.77;;;7.60;99.90;;;;;;5080989;28;20048;-78
2023/10/19 00:54:24;;;;;;;0.60;0.60;;;7.60;99.90;;;;;;5100973;28;20060;-76
2023/10/19 00:56:53;;;;;;;0.90;0.90;;;7.60;99.90;;;;;;5109424;28;20039;-76
2023/10/19 00:59:29;;;;;;;0.73;0.73;;;7.50;99.90;;;;;;5112835;27;20048;-77
2023/10/19 01:02:04;;;;;;;;;;;7.60;99.90;;;;;;5108649;27;20058;-77
2023/10/19 01:04:32;;;;;;;1.65;1.33;;;7.70;99.90;;;;;;5089468;28;19969;-78
2023/10/19 01:07:06;;;;;;;1.08;1.08;;;7.60;99.90;;;;;;5111606;28;20048;-78
2023/10/19 01:09:36;;;;;;;0.63;0.63;;;7.60;99.90;;;;;;5109413;28;20059;-77
2023/10/19 01:15:13;;;;;;;1.33;1.33;;;7.60;99.90;;;;;;5101924;28;20155;-77
2023/10/19 01:17:43;;;;;;;1.13;0.55;;;7.60;99.90;;;;;;5109367;28;20122;-78
2023/10/19 01:20:18;;;;;;;0.85;0.85;;;7.60;99.90;;;;;;5107723;28;20192;-77
2023/10/19 01:23:05;;;;;;;0.60;0.60;;;7.60;99.90;;;;;;5108455;28;20493;-76
2023/10/19 01:25:36;;;;;;;0.70;0.70;;;7.60;99.90;;;;;;5099001;28;20054;-77
2023/10/19 01:28:08;;;;;;;0.60;0.60;;;7.60;99.90;;;;;;5109958;28;20040;-76
2023/10/19 01:30:36;;;;;;;0.60;0.60;;;7.60;99.90;;;;;;5110071;28;20043;-75
2023/10/19 01:33:15;;;;;;;0.50;0.50;;;7.60;99.90;;;;;;5109117;28;20490;-76
2023/10/19 01:38:33;;;;;;;0.50;0.50;;;7.60;99.90;;;;;;5102005;28;20047;-75
2023/10/19 01:41:26;;;;;;;0.50;0.50;;;7.60;99.90;;;;;;5106386;28;20054;-76
2023/10/19 01:43:54;;;;;;;0.57;0.57;;;7.60;99.90;;;;;;5102510;28;20875;-75
2023/10/19 01:46:21;;;;;;;1.05;0.93;;;7.60;99.90;;;;;;5102638;28;20040;-76
2023/10/19 01:48:53;;;;;;;0.60;0.60;;;7.50;99.90;;;;;;5109217;28;20105;-76
2023/10/19 01:51:20;;;;;;;0.70;0.70;;;7.50;99.90;;;;;;5108387;28;20066;-76
2023/10/19 01:53:47;;;;;;;0.43;0.43;;;7.50;99.90;;;;;;5131032;27;20446;-77
2023/10/19 01:56:14;;;;;;;0.70;0.70;;;7.50;99.90;;;;;;5101360;28;20355;-76
2023/10/19 01:58:42;;;;;;;1.95;1.55;;;7.80;99.90;;;;;;5108809;28;20517;-75
2023/10/19 02:03:41;;;;;;;0.70;0.70;;;7.50;99.90;;;;;;5090941;28;20406;-77
2023/10/19 02:06:17;;;;;;;0.80;0.80;;;7.50;99.90;;;;;;5108423;28;20079;-77
2023/10/19 02:08:51;;;;;;;0.73;0.73;;;7.50;99.90;;;;;;5109075;28;20051;-78
2023/10/19 02:11:21;;;;;;;0.73;0.73;;;7.50;99.90;;;;;;5113170;28;20119;-79
2023/10/19 02:13:51;;;;;;;0.60;0.60;;;7.50;99.90;;;;;;5107965;28;20081;-80
2023/10/19 02:16:32;;;;;;;0.70;0.70;;;7.50;99.90;;;;;;5100373;28;20054;-79
2023/10/19 02:18:58;;;;;;;0.50;0.50;;;7.50;99.90;;;;;;5111119;28;20071;-79
2023/10/19 02:21:30;;;;;;;0.60;0.60;;;7.50;99.90;;;;;;5112285;28;20079;-79
2023/10/19 02:23:57;;;;;;;0.60;0.60;;;7.50;99.90;;;;;;5112657;28;20051;-80
2023/10/19 02:26:27;;;;;;;0.77;0.77;;;7.60;99.90;;;;;;5112391;27;20114;-79
2023/10/19 02:28:53;;;;;;;1.00;1.00;;;7.50;99.90;;;;;;5112456;28;20482;-79
2023/10/19 02:31:23;;;;;;;0.77;0.77;;;7.50;99.90;;;;;;5112227;28;20589;-78
2023/10/19 02:33:58;;;;;;;0.52;0.52;;;7.50;99.90;;;;;;5112123;28;20054;-78
2023/10/19 02:36:30;;;;;;;0.50;0.50;;;7.50;99.90;;;;;;5106700;27;20135;-79
2023/10/19 02:39:07;;;;;;;0.63;0.63;;;7.50;99.90;;;;;;5107720;27;20048;-79
2023/10/19 02:41:38;;;;;;;0.60;0.60;;;7.50;99.90;;;;;;5111501;28;20046;-80
2023/10/19 02:44:19;;;;;;;1.85;1.75;;;7.50;99.90;;;;;;5105980;28;20055;-79
2023/10/19 02:46:45;;;;;;;0.60;0.60;;;7.50;99.90;;;;;;5108176;27;20063;-79
2023/10/19 02:49:18;;;;;;;0.65;0.65;;;7.50;99.90;;;;;;5099136;28;20112;-79
2023/10/19 02:51:45;;;;;;;0.50;0.50;;;7.50;99.90;;;;;;5112852;27;20052;-79
2023/10/19 02:54:24;;;;;;;0.60;0.60;;;7.70;99.90;;;;;;5112056;28;20059;-80
2023/10/19 02:56:53;;;;;;;1.83;1.73;;;7.50;99.90;;;;;;5109418;27;20046;-80
2023/10/19 02:59:22;;;;;;;1.88;1.77;;;7.50;99.90;;;;;;5111164;27;20577;-79
2023/10/19 03:01:50;;;;;;;0.50;0.50;;;7.50;99.90;;;;;;5094294;28;20046;-80
2023/10/19 03:04:16;;;;;;;0.90;0.90;;;7.50;99.90;;;;;;5111748;28;20040;-79
2023/10/19 03:06:41;;;;;;;0.70;0.70;;;7.50;99.90;;;;;;5090142;28;20137;-80
2023/10/19 03:12:05;;;;;;;0.55;0.55;;;7.50;99.90;;;;;;5087193;27;20047;-79
2023/10/19 03:14:33;;;;;;;0.50;0.50;;;7.50;99.90;;;;;;5112205;27;20044;-79
2023/10/19 03:16:59;;;;;;;0.40;0.40;;;7.50;99.90;;;;;;5110580;27;20051;-78
2023/10/19 03:19:25;;;;;;;;;;;7.50;99.90;;;;;;5106115;28;20047;-78
2023/10/19 03:21:52;;;;;;;1.65;0.98;;;7.50;99.90;;;;;;5110860;28;20293;-78
2023/10/19 03:24:35;;;;;;;;;;;7.50;99.90;;;;;;5112338;28;20051;-78
2023/10/19 03:27:18;;;;;;;0.65;0.65;;;7.50;99.90;;;;;;5110270;28;20365;-79
2023/10/19 03:29:53;;;;;;;0.68;0.68;;;7.50;99.90;;;;;;5112925;27;20054;-78
2023/10/19 03:32:22;;;;;;;2.83;1.60;;;7.50;99.90;;;;;;5111568;28;20035;-78
2023/10/19 03:34:49;;;;;;;0.60;0.60;;;7.50;99.90;;;;;;5111627;28;20043;-78
2023/10/19 03:37:16;;;;;;;1.02;1.02;;;7.60;99.90;;;;;;5100352;28;20047;-78
2023/10/19 03:39:45;;;;;;;0.80;0.80;;;7.50;99.90;;;;;;5109075;28;20079;-78
2023/10/19 03:42:13;;;;;;;0.45;0.45;;;7.50;99.90;;;;;;5111440;28;20400;-78
2023/10/19 03:47:11;;;;;;;0.57;0.57;;;7.50;99.90;;;;;;5116403;27;20081;-78
2023/10/19 03:49:38;;;;;;;1.92;1.73;;;7.50;99.90;;;;;;5094653;28;20051;-79
2023/10/19 03:54:38;;;;;;;0.65;0.65;;;8.60;99.90;;;;;;5102177;28;20498;-79
2023/10/19 03:57:06;;;;;;;0.40;0.40;;;7.70;99.90;;;;;;5111363;27;20394;-79
2023/10/19 03:59:35;;;;;;;0.60;0.60;;;7.50;99.90;;;;;;5104240;27;20047;-78
2023/10/19 04:02:07;;;;;;;0.50;0.50;;;7.60;99.90;;;;;;5092596;28;20103;-78
2023/10/19 04:04:33;;;;;;;0.50;0.50;;;7.50;99.90;;;;;;5109774;28;20427;-80
2023/10/19 04:06:59;;;;;;;;;;;7.60;99.90;;;;;;5101147;28;20501;-78
2023/10/19 04:09:29;;;;;;;0.50;0.50;;;7.60;99.90;;;;;;5096132;28;19920;-79
2023/10/19 04:11:57;;;;;;;0.50;0.50;;;7.60;99.90;;;;;;5111041;28;20090;-78
2023/10/19 04:14:23;;;;;;;0.60;0.60;;;7.60;99.90;;;;;;5110805;28;20039;-79
2023/10/19 04:16:49;;;;;;;0.50;0.50;;;7.60;99.90;;;;;;5092034;28;20055;-79
2023/10/19 04:19:18;;;;;;;0.50;0.50;;;7.60;99.90;;;;;;5110606;27;20569;-79
2023/10/19 04:21:46;;;;;;;0.57;0.57;;;7.80;99.90;;;;;;5111637;27;20042;-80
2023/10/19 04:24:12;;;;;;;0.50;0.50;;;7.60;99.90;;;;;;5099412;28;20051;-78
2023/10/19 04:26:39;;;;;;;0.40;0.40;;;7.60;99.90;;;;;;5107074;28;20039;-79
2023/10/19 04:29:16;;;;;;;0.45;0.45;;;7.60;99.90;;;;;;5106015;27;20599;-79
2023/10/19 04:31:54;;;;;;;0.52;0.52;;;7.60;99.90;;;;;;5108801;27;20541;-79
2023/10/19 04:34:21;;;;;;;0.47;0.47;;;7.60;99.90;;;;;;5108478;28;20477;-78
2023/10/19 04:36:52;;;;;;;0.60;0.60;;;7.60;99.90;;;;;;5093251;28;20862;-79
2023/10/19 04:39:21;;;;;;;0.70;0.70;;;7.60;99.90;;;;;;5109248;27;20039;-79
2023/10/19 04:41:49;;;;;;;0.50;0.50;;;7.60;99.90;;;;;;5107760;27;20069;-79
2023/10/19 04:44:15;;;;;;;0.57;0.57;;;7.60;99.90;;;;;;5095988;28;20086;-79
2023/10/19 04:46:42;;;;;;;0.50;0.50;;;7.60;99.90;;;;;;5108358;27;20075;-79
2023/10/19 04:49:07;;;;;;;0.40;0.40;;;7.60;99.90;;;;;;5091802;28;20051;-78
2023/10/19 04:51:37;;;;;;;0.55;0.55;;;7.60;99.90;;;;;;5115453;27;20061;-78
2023/10/19 04:54:03;;;;;;;0.40;0.40;;;7.80;99.90;;;;;;5098561;28;20130;-78
2023/10/19 04:56:28;;;;;;;0.50;0.50;;;7.70;99.90;;;;;;5090930;28;20127;-78
2023/10/19 04:58:54;;;;;;;0.50;0.50;;;7.60;99.90;;;;;;5110064;28;20539;-78
2023/10/19 05:01:20;;;;;;;0.43;0.43;;;7.60;99.90;;;;;;5105909;28;20047;-79
2023/10/19 05:03:45;;;;;;;0.60;0.60;;;7.60;99.90;;;;;;5104881;28;20047;-77
2023/10/19 05:06:12;;;;;;;0.50;0.50;;;7.60;99.90;;;;;;5109844;28;20047;-78
2023/10/19 05:08:39;;;;;;;0.63;0.57;;;7.70;99.90;;;;;;5103458;28;20055;-79
2023/10/19 05:11:05;;;;;;;0.50;0.50;;;7.60;99.90;;;;;;5108215;28;20518;-79
2023/10/19 05:13:32;;;;;;;1.35;1.27;;;7.70;99.90;;;;;;5105841;28;20075;-79
2023/10/19 05:16:01;;;;;;;0.80;0.80;;;7.70;99.90;;;;;;5107993;28;20051;-79
2023/10/19 05:18:27;;;;;;;0.60;0.60;;;7.70;99.90;;;;;;5092606;28;20078;-79
2023/10/19 05:20:56;;;;;;;0.43;0.43;;;7.70;99.90;;;;;;5109296;28;20075;-80
2023/10/19 05:23:25;;;;;;;0.50;0.50;;;7.70;99.90;;;;;;5116558;28;20065;-79
2023/10/19 05:25:53;;;;;;;0.55;0.55;;;7.70;99.90;;;;;;5109230;28;20163;-79
2023/10/19 05:28:21;;;;;;;0.80;0.80;;;7.70;99.90;;;;;;5093310;28;20444;-79
2023/10/19 05:30:49;;;;;;;0.50;0.50;;;7.90;99.90;;;;;;5109085;28;20094;-79
2023/10/19 05:33:14;;;;;;;0.68;0.68;;;7.80;99.90;;;;;;5112901;28;20508;-79
2023/10/19 05:35:40;;;;;;;0.52;0.52;;;7.70;99.90;;;;;;5109114;28;20044;-79
2023/10/19 05:38:09;;;;;;;0.50;0.50;;;7.80;99.90;;;;;;5100423;28;20048;-78
2023/10/19 05:40:35;;;;;;;0.52;0.52;;;7.80;99.90;;;;;;5109125;28;20040;-78
2023/10/19 05:43:01;;;;;;;0.93;0.93;;;7.80;99.90;;;;;;5095686;28;20056;-77
2023/10/19 05:45:28;;;;;;;0.63;0.63;;;7.70;99.90;;;;;;5109392;28;20044;-78
2023/10/19 05:47:57;;;;;;;0.50;0.50;;;7.80;99.90;;;;;;5107980;28;20056;-79
2023/10/19 05:50:23;;;;;;;0.40;0.40;;;7.80;99.90;;;;;;5111073;28;20059;-77
2023/10/19 05:52:48;;;;;;;0.50;0.50;;;7.80;99.90;;;;;;5108855;28;20107;-78
2023/10/19 05:55:14;;;;;;;1.02;1.02;;;7.80;99.90;;;;;;5111159;28;20048;-80
2023/10/19 05:57:40;;;;;;;;;;;7.80;99.90;;;;;;5111641;28;20638;-79
2023/10/19 06:00:15;;;;;;;0.65;0.65;;;7.80;99.90;;;;;;5100068;28;20027;-80
2023/10/19 06:02:51;;;;;;;0.40;0.40;;;7.80;99.90;;;;;;5077306;28;20403;-80
2023/10/19 06:05:17;;;;;;;0.60;0.60;;;7.80;99.90;;;;;;5078400;28;20154;-80
2023/10/19 06:07:48;;;;;;;0.47;0.47;;;7.80;99.90;;;;;;5071030;28;20050;-80
2023/10/19 06:10:20;;;;;;;0.30;0.30;;;7.80;99.90;;;;;;5097119;28;20444;-79
2023/10/19 06:12:47;;;;;;;2.17;0.95;;;7.80;99.90;;;;;;5097126;27;20055;-81
2023/10/19 06:15:15;;;;;;;0.80;0.75;;;7.80;99.90;;;;;;5102728;28;20166;-81
2023/10/19 06:17:41;;;;;;;0.50;0.50;;;7.80;99.90;;;;;;5089182;28;20131;-79
2023/10/19 06:20:19;;;;;;;0.40;0.40;;;7.80;99.90;;;;;;5105850;27;20124;-79
2023/10/19 06:22:50;;;;;;;0.60;0.60;;;7.80;99.90;;;;;;5108006;28;20448;-78
2023/10/19 06:25:21;;;;;;;0.40;0.40;;;7.80;99.90;;;;;;5110501;28;20394;-79
2023/10/19 06:27:47;;;;;;;0.98;0.98;;;8.50;99.90;;;;;;5107476;28;20561;-78
2023/10/19 06:30:22;;;;;;;0.40;0.40;;;7.80;99.90;;;;;;5104052;28;20070;-78
2023/10/19 06:32:53;;;;;;;1.02;1.02;;;7.90;99.90;;;;;;5090037;28;20058;-79
2023/10/19 06:35:19;;;;;;;0.50;0.50;;;7.80;99.90;;;;;;5108999;28;20540;-79
2023/10/19 06:37:46;;;;;;;0.50;0.50;;;7.90;99.90;;;;;;5109803;28;20396;-79
2023/10/19 06:40:14;;;;;;;0.50;0.50;;;7.90;99.90;;;;;;5112293;28;20401;-79
2023/10/19 06:42:41;;;;;;;0.30;0.30;;;7.90;99.90;;;;;;5109736;28;20793;-80
2023/10/19 06:45:07;;;;;;;0.60;0.60;;;7.90;99.90;;;;;;5104382;28;20039;-80
2023/10/19 06:47:37;;;;;;;0.35;0.35;;;7.90;99.90;;;;;;5114878;27;20421;-81
2023/10/19 06:50:10;;;;;;;0.50;0.50;;;7.90;99.90;;;;;;5108718;28;20051;-81
2023/10/19 06:52:39;;;;;;;0.60;0.60;;;7.90;99.90;;;;;;5088635;28;20123;-81
2023/10/19 06:55:13;;;;;;;0.60;0.60;;;7.90;99.90;;;;;;5108960;27;20075;-81
2023/10/19 06:57:43;;;;;;;0.57;0.57;;;7.90;99.90;;;;;;5122733;27;20036;-80
2023/10/19 07:00:19;;;;;;;0.47;0.47;;;7.90;99.90;;;;;;5109039;28;20044;-81
2023/10/19 07:02:49;;;;;;;0.50;0.50;;;7.90;99.90;;;;;;5108468;28;20051;-80
2023/10/19 07:05:18;;;;;;;0.38;0.38;;;7.90;99.90;;;;;;5090292;27;20051;-79
2023/10/19 07:07:45;;;;;;;0.50;0.50;;;8.00;99.90;;;;;;5110304;27;20165;-79
2023/10/19 07:10:12;;;;;;;0.40;0.40;;;8.30;99.90;;;;;;5112751;27;20057;-80
2023/10/19 07:12:40;;;;;;;0.40;0.40;;;8.00;99.90;;;;;;5089995;28;20043;-79
2023/10/19 07:15:13;;;;;;;0.40;0.40;;;8.00;99.90;;;;;;5110151;28;20039;-79
2023/10/19 07:17:43;;;;;;;0.47;0.47;;;8.00;99.90;;;;;;5110805;28;20040;-79
2023/10/19 07:20:25;;;;;;;0.55;0.55;;;8.00;99.90;;;;;;5109749;27;20035;-80
2023/10/19 07:22:54;;;;;;;0.50;0.50;;;8.00;99.90;;;;;;5108751;28;20055;-79
2023/10/19 07:25:21;;;;;;;0.40;0.40;;;8.00;99.90;;;;;;5106337;27;20449;-79
2023/10/19 07:27:52;;;;;;;0.50;0.50;;;8.00;99.90;;;;;;5091688;27;20125;-78
2023/10/19 07:30:22;;;;;;;0.50;0.50;;;8.00;99.90;;;;;;5106931;28;20075;-79
2023/10/19 07:32:54;;;;;;;0.38;0.38;;;8.00;99.90;;;;;;5107600;27;20063;-78
2023/10/19 07:35:22;;;;;;;0.43;0.43;;;8.00;99.90;;;;;;5107335;28;20043;-78
2023/10/19 07:37:49;;;;;;;0.50;0.50;;;8.10;99.90;;;;;;5118427;27;20051;-77
2023/10/19 07:40:17;;;;;;;0.50;0.50;;;8.10;99.90;;;;;;5110840;28;20043;-78
2023/10/19 07:42:46;;;;;;;0.60;0.60;;;8.00;99.90;;;;;;5107011;27;20050;-78
2023/10/19 07:45:12;;;;;;;0.32;0.32;;;8.00;99.90;;;;;;5100757;27;20086;-77
2023/10/19 07:47:42;;;;;;;0.40;0.40;;;8.00;99.90;;;;;;5101605;27;20056;-78
2023/10/19 07:50:15;;;;;;;0.50;0.50;;;8.00;99.90;;;;;;5070732;28;20064;-78
2023/10/19 07:52:51;;;;;;;0.50;0.50;;;8.00;99.90;;;;;;5069317;28;20376;-77
2023/10/19 07:55:18;;;;;;;0.52;0.52;;;8.00;99.90;;;;;;5066237;28;20109;-77
2023/10/19 07:57:44;;;;;;;0.50;0.50;;;8.00;99.90;;;;;;5065472;28;20514;-78
2023/10/19 08:00:11;;;;;;;;;;;8.00;99.90;;;;;;5067971;28;20762;-76
2023/10/19 08:02:46;;;;;;;0.40;0.40;;;8.00;99.90;;;;;;5068639;28;19926;-76
2023/10/19 08:05:12;;;;;;;0.40;0.40;;;8.00;99.90;;;;;;5061739;28;20070;-76
2023/10/19 08:07:39;;;;;;;0.50;0.50;;;8.00;99.90;;;;;;5100891;28;20048;-76
2023/10/19 08:10:17;;;;;;;0.50;0.50;;;8.00;99.90;;;;;;5068961;28;20093;-76
2023/10/19 08:12:44;;;;;;;0.50;0.50;;;8.00;99.90;;;;;;5062469;28;20083;-76
2023/10/19 08:15:11;;;;;;;0.50;0.50;;;8.00;99.90;;;;;;5067722;28;20439;-76
2023/10/19 08:17:40;;;;;;;0.60;0.60;;;8.10;99.90;;;;;;5068817;28;20068;-76
2023/10/19 08:20:15;;;;;;;0.60;0.60;;;8.00;99.90;;;;;;5068338;28;20503;-75
2023/10/19 08:22:42;;;;;;;0.60;0.60;;;8.00;99.90;;;;;;5067544;28;20052;-76
2023/10/19 08:25:11;;;;;;;0.45;0.45;;;8.00;99.90;;;;;;5067732;28;20053;-76
2023/10/19 08:27:49;;;;;;;0.50;0.50;;;8.10;99.90;;;;;;5066051;28;20040;-75
2023/10/19 08:30:20;;;;;;;0.47;0.47;;;8.00;99.90;;;;;;5066204;28;20056;-75
2023/10/19 08:32:49;;;;;;;0.40;0.40;;;8.10;99.90;;;;;;5068757;28;20087;-75
2023/10/19 08:35:20;;;;;;;0.40;0.40;;;8.00;99.90;;;;;;5066652;28;20709;-75
2023/10/19 08:37:46;;;;;;;0.52;0.52;;;8.00;99.90;;;;;;5066812;28;20032;-76
2023/10/19 08:40:16;;;;;;;0.40;0.40;;;8.00;99.90;;;;;;5068527;28;20090;-76
2023/10/19 08:42:45;;;;;;;0.40;0.40;;;8.10;99.90;;;;;;5067000;28;20052;-76
2023/10/19 08:45:14;;;;;;;0.50;0.50;;;8.20;99.90;;;;;;5068676;28;20053;-75
2023/10/19 08:47:57;;;;;;;0.60;0.60;;;8.10;99.90;;;;;;5074033;28;20497;-78
2023/10/19 08:50:33;;;;;;;0.50;0.50;;;8.20;99.90;;;;;;5107161;27;20054;-76
2023/10/19 08:53:03;;;;;;;0.53;0.53;;;8.10;99.90;;;;;;5103435;28;20055;-75
2023/10/19 08:55:36;;;;;;;0.40;0.40;;;8.20;99.90;;;;;;5109425;27;20293;-75
2023/10/19 08:58:05;;;;;;;0.50;0.50;;;8.10;99.90;;;;;;5103732;27;20043;-76
2023/10/19 09:00:46;;;;;;;0.30;0.30;;;8.20;99.90;;;;;;5107830;28;20055;-75
2023/10/19 09:03:13;;;;;;;0.47;0.47;;;8.20;99.90;;;;;;5106478;27;20055;-75
2023/10/19 09:05:40;;;;;;;0.45;0.45;;;8.30;99.90;;;;;;5108023;28;20048;-76
2023/10/19 09:08:06;;;;;;;0.40;0.40;;;8.30;99.90;;;;;;5094875;28;20562;-75
2023/10/19 09:10:32;;;;;;;0.52;0.52;;;8.40;99.90;;;;;;5109537;28;20047;-75
2023/10/19 09:13:02;;;;;;;0.40;0.40;;;8.40;99.90;;;;;;5092665;28;20108;-75
2023/10/19 09:15:32;;;;;;;0.40;0.40;;;8.40;99.90;;;;;;5109205;28;20418;-75
2023/10/19 09:18:01;;;;;;;0.40;0.40;;;8.40;99.90;;;;;;5106760;28;20051;-76
2023/10/19 09:20:27;;;;;;;0.38;0.38;;;8.40;99.90;;;;;;5089191;28;20055;-75
2023/10/19 09:22:57;;;;;;;0.40;0.40;;;8.40;99.90;;;;;;5106608;28;20050;-75
2023/10/19 09:25:23;;;;;;;0.40;0.40;;;8.40;99.90;;;;;;5106382;28;20100;-76
2023/10/19 09:27:49;;;;;;;1.35;1.35;;;8.40;99.90;;;;;;5089190;27;20052;-74
2023/10/19 09:30:21;;;;;;;0.45;0.45;;;8.50;99.90;;;;;;5110502;27;20043;-75
2023/10/19 09:32:48;;;;;;;0.40;0.40;;;8.40;99.90;;;;;;5125070;27;20040;-75
2023/10/19 09:35:15;;;;;;;0.35;0.35;;;8.50;99.90;;;;;;5111969;27;20051;-75
2023/10/19 09:37:44;;;;;;;0.40;0.40;;;8.40;99.90;;;;;;5112820;28;20043;-75
2023/10/19 09:40:13;;;;;;;0.50;0.50;;;8.50;99.90;;;;;;5112522;28;20043;-74
2023/10/19 09:42:49;;;;;;;0.50;0.50;;;8.50;99.90;;;;;;5105992;27;20482;-75
2023/10/19 09:45:20;;;;;;;0.43;0.43;;;8.50;99.90;;;;;;5111718;28;20054;-75
2023/10/19 09:47:50;;;;;;;0.40;0.40;;;8.50;99.90;;;;;;5112559;27;20089;-75
2023/10/19 09:50:16;;;;;;;0.40;0.40;;;8.60;99.90;;;;;;5113575;27;20051;-75
2023/10/19 09:52:42;;;;;;;0.68;0.68;;;8.60;99.90;;;;;;5120536;27;20040;-75
2023/10/19 09:55:17;;;;;;;0.50;0.50;;;8.60;99.90;;;;;;5111389;28;20054;-75
2023/10/19 09:58:02;;;;;;;0.40;0.40;;;8.60;99.90;;;;;;5109894;28;20096;-75
2023/10/19 10:00:31;;;;;;;0.50;0.50;;;8.60;99.90;;;;;;5108804;28;20042;-75
2023/10/19 10:02:57;;;;;;;0.60;0.60;;;8.70;99.90;;;;;;5112800;28;20105;-75
2023/10/19 10:05:44;;;;;;;0.50;0.50;;;8.70;99.90;;;;;;5092675;28;20050;-75
2023/10/19 10:08:19;;;;;;;0.40;0.40;;;8.70;99.90;;;;;;5096555;28;20048;-75
2023/10/19 10:10:46;;;;;;;0.40;0.40;;;8.80;99.90;;;;;;5112553;28;20048;-75
2023/10/19 10:13:24;;;;;;;0.40;0.40;;;8.80;99.90;;;;;;5110691;28;20043;-76
2023/10/19 10:15:54;;;;;;;0.60;0.60;;;9.00;99.90;;;;;;5106087;28;20077;-75
2023/10/19 10:18:20;;;;;;;0.30;0.30;;;8.90;99.90;;;;;;5078562;28;20095;-75
2023/10/19 10:20:47;;;;;;;0.45;0.45;;;9.00;99.90;;;;;;5111942;27;20044;-76
2023/10/19 10:23:24;;;;;;;0.60;0.60;;;8.90;99.90;;;;;;5111648;28;20765;-73
2023/10/19 10:25:53;;;;;;;0.50;0.50;;;9.00;99.90;;;;;;5107520;28;20578;-76
2023/10/19 10:28:23;;;;;;;0.40;0.40;;;9.00;99.90;;;;;;5110281;28;20078;-75
2023/10/19 10:31:08;;;;;;;0.57;0.57;;;9.10;99.90;;;;;;5111450;27;20435;-75
2023/10/19 10:33:57;;;;;;;0.43;0.43;;;9.10;99.90;;;;;;5111789;27;20075;-75
2023/10/19 10:36:23;;;;;;;0.40;0.40;;;9.10;99.90;;;;;;5089349;28;20087;-75
2023/10/19 10:38:50;;;;;;;0.32;0.32;;;9.10;99.90;;;;;;5108250;28;20042;-75
2023/10/19 10:41:28;;;;;;;0.45;0.45;;;9.10;99.90;;;;;;5092933;28;20048;-75
2023/10/19 10:43:55;;;;;;;6.13;1.48;;;9.10;99.90;;;;;;5090259;28;20047;-75
2023/10/19 10:46:27;;;;;;;0.40;0.40;;;9.20;99.90;;;;;;5109243;28;20047;-75
2023/10/19 10:48:53;;;;;;;0.57;0.57;;;9.20;99.90;;;;;;5111704;28;20077;-75
2023/10/19 10:51:23;;;;;;;;;;;9.20;99.90;;;;;;5098720;28;20050;-75
2023/10/19 10:53:53;;;;;;;0.73;0.50;;;9.10;99.90;;;;;;5092568;28;19920;-76
2023/10/19 10:56:20;;;;;;;0.55;0.55;;;9.20;99.90;;;;;;5106663;27;20051;-75
2023/10/19 10:58:46;;;;;;;0.43;0.43;;;9.10;99.90;;;;;;5102878;27;20040;-75
2023/10/19 11:01:13;;;;;;;0.50;0.50;;;9.10;99.90;;;;;;5106090;28;20061;-75
2023/10/19 11:03:40;;;;;;;0.40;0.40;;;9.10;99.90;;;;;;5116005;27;20436;-75
2023/10/19 11:06:09;;;;;;;0.40;0.40;;;9.20;99.90;;;;;;5109008;28;20461;-75
2023/10/19 11:08:36;;;;;;;0.40;0.40;;;9.10;99.90;;;;;;5110499;27;20036;-75
2023/10/19 11:11:12;;;;;;;0.43;0.43;;;9.10;99.90;;;;;;5110547;28;20035;-75
2023/10/19 11:13:38;;;;;;;0.38;0.38;;;9.20;99.90;;;;;;5104616;27;20050;-76
2023/10/19 11:16:07;;;;;;;0.40;0.40;;;9.10;99.90;;;;;;5104591;27;20043;-75
2023/10/19 11:18:45;;;;;;;0.40;0.40;;;9.20;99.90;;;;;;5087840;27;20175;-75
2023/10/19 11:21:14;;;;;;;0.80;0.80;;;9.10;99.90;;;;;;5107408;27;20075;-75
2023/10/19 11:23:44;;;;;;;0.68;0.68;;;9.20;99.90;;;;;;5108988;27;20498;-75
2023/10/19 11:26:11;;;;;;;0.93;0.93;;;9.20;99.90;;;;;;5106457;28;20148;-75
2023/10/19 11:28:50;;;;;;;0.40;0.40;;;9.10;99.90;;;;;;5104504;28;20050;-74
2023/10/19 11:31:18;;;;;;;0.40;0.40;;;9.10;99.90;;;;;;5107017;28;20118;-74
2023/10/19 11:33:45;;;;;;;0.50;0.50;;;9.10;99.90;;;;;;5107234;28;20067;-74
2023/10/19 11:36:12;;;;;;;0.40;0.40;;;9.10;99.90;;;;;;5108583;27;20051;-74
2023/10/19 11:38:44;;;;;;;0.40;0.40;;;9.20;99.90;;;;;;5091236;28;20128;-74
2023/10/19 11:41:14;;;;;;;0.68;0.50;;;9.10;99.90;;;;;;5102907;28;20075;-75
2023/10/19 11:43:41;;;;;;;0.50;0.50;;;9.10;99.90;;;;;;5107270;28;20161;-75
2023/10/19 11:46:07;;;;;;;0.40;0.40;;;9.20;99.90;;;;;;5107188;28;20675;-75
2023/10/19 11:48:35;;;;;;;0.80;0.80;;;9.10;99.90;;;;;;5085552;28;20455;-75
2023/10/19 11:51:04;;;;;;;0.40;0.40;;;9.10;99.90;;;;;;5100692;28;20043;-75
2023/10/19 11:53:33;;;;;;;0.50;0.50;;;9.10;99.90;;;;;;5099217;27;20051;-75
2023/10/19 11:56:01;;;;;;;0.40;0.40;;;9.10;99.90;;;;;;5100374;28;20075;-74
2023/10/19 11:58:27;;;;;;;0.40;0.40;;;9.10;99.90;;;;;;5099414;27;20126;-75
2023/10/19 12:00:54;;;;;;;0.50;0.50;;;9.10;99.90;;;;;;5110465;27;20047;-75
2023/10/19 12:03:20;;;;;;;0.43;0.43;;;9.00;99.90;;;;;;5108516;28;20050;-75
2023/10/19 12:05:46;;;;;;;0.70;0.70;;;9.10;99.90;;;;;;5109589;28;20085;-75
2023/10/19 12:08:12;;;;;;;0.40;0.40;;;9.10;99.90;;;;;;5072709;28;20040;-74
2023/10/19 12:10:38;;;;;;;0.77;0.77;;;9.00;99.90;;;;;;5090269;28;20034;-74
2023/10/19 12:13:08;;;;;;;0.40;0.40;;;9.00;99.90;;;;;;5108257;28;20049;-75
2023/10/19 12:15:34;;;;;;;0.38;0.38;;;9.10;99.90;;;;;;5085334;27;20105;-75
2023/10/19 12:18:01;;;;;;;0.50;0.50;;;9.00;99.90;;;;;;5096327;28;20489;-75
2023/10/19 12:20:27;;;;;;;0.60;0.60;;;9.00;99.90;;;;;;5105690;28;20108;-75
2023/10/19 12:22:53;;;;;;;0.60;0.60;;;9.00;99.90;;;;;;5103461;27;20486;-75
2023/10/19 12:25:29;;;;;;;0.70;0.70;;;9.00;99.90;;;;;;5103172;28;20051;-76
2023/10/19 12:27:58;;;;;;;0.40;0.40;;;9.10;99.90;;;;;;5102462;28;20761;-76
2023/10/19 12:30:26;;;;;;;0.63;0.63;;;9.10;99.90;;;;;;5105886;27;20804;-76
2023/10/19 12:32:55;;;;;;;0.50;0.50;;;9.10;99.90;;;;;;5104836;27;20055;-75
2023/10/19 12:35:24;;;;;;;0.52;0.52;;;9.20;99.90;;;;;;5103311;27;20349;-75
2023/10/19 12:37:55;;;;;;;0.40;0.40;;;9.10;99.90;;;;;;5107465;27;20043;-75
2023/10/19 12:40:28;;;;;;;0.88;0.88;;;9.10;99.90;;;;;;5107710;28;20058;-75
2023/10/19 12:42:54;;;;;;;0.65;0.65;;;9.00;99.90;;;;;;5090345;28;20043;-75
2023/10/19 12:45:26;;;;;;;0.52;0.52;;;9.00;99.90;;;;;;5108709;28;20081;-75
2023/10/19 12:47:52;;;;;;;0.55;0.55;;;8.90;99.90;;;;;;5107922;27;20406;-75
2023/10/19 12:50:22;;;;;;;0.50;0.50;;;8.80;99.90;;;;;;5107744;27;20047;-75
2023/10/19 12:52:51;;;;;;;0.40;0.40;;;8.80;99.90;;;;;;5105634;27;20838;-75
2023/10/19 12:55:19;;;;;;;0.47;0.47;;;8.80;99.90;;;;;;5105556;27;20051;-74
2023/10/19 12:57:44;;;;;;;0.40;0.40;;;8.80;99.90;;;;;;5084463;28;20043;-75
2023/10/19 13:00:26;;;;;;;0.55;0.55;;;8.80;99.90;;;;;;5106443;28;20048;-75
2023/10/19 13:03:01;;;;;;;0.50;0.50;;;8.80;99.90;;;;;;5106997;28;20104;-75
2023/10/19 13:05:28;;;;;;;0.52;0.52;;;8.90;99.90;;;;;;5087847;28;20082;-75
2023/10/19 13:07:58;;;;;;;0.47;0.47;;;8.90;99.90;;;;;;5091035;28;20053;-75
2023/10/19 13:10:28;;;;;;;1.30;1.27;;;8.90;99.90;;;;;;5107589;28;20059;-75
2023/10/19 13:12:53;;;;;;;0.93;0.93;;;8.90;99.90;;;;;;5104379;28;20153;-75
2023/10/19 13:15:20;;;;;;;0.40;0.40;;;8.90;99.90;;;;;;5104000;28;20160;-76
2023/10/19 13:17:47;;;;;;;;;;;8.90;99.90;;;;;;5103577;28;20031;-75
2023/10/19 13:20:17;;;;;;;0.52;0.52;;;8.80;99.90;;;;;;5103197;28;20342;-75
2023/10/19 13:22:44;;;;;;;0.40;0.40;;;8.80;99.90;;;;;;5103561;27;20118;-74
2023/10/19 13:25:12;;;;;;;0.38;0.38;;;8.80;99.90;;;;;;5100610;28;21907;-74
2023/10/19 13:27:41;;;;;;;0.40;0.40;;;8.80;99.90;;;;;;5106373;28;20040;-75
2023/10/19 13:30:11;;;;;;;0.50;0.50;;;8.80;99.90;;;;;;5106967;28;20051;-75
2023/10/19 13:32:37;;;;;;;0.50;0.50;;;8.80;99.90;;;;;;5108566;28;20502;-75
2023/10/19 13:35:04;;;;;;;0.40;0.40;;;8.80;99.90;;;;;;5104295;28;20081;-75
2023/10/19 13:37:30;;;;;;;0.40;0.40;;;8.80;99.90;;;;;;5104054;28;20079;-75
2023/10/19 13:39:57;;;;;;;0.55;0.55;;;8.80;99.90;;;;;;5093013;28;20128;-74
2023/10/19 13:42:22;;;;;;;0.40;0.40;;;8.80;99.90;;;;;;5087872;28;20431;-75
2023/10/19 13:44:49;;;;;;;0.50;0.50;;;8.80;99.90;;;;;;5106768;28;20146;-75